Folsom, WV (26348)

1:33 PM EDT on March 30, 2015 (GMT -0400)
Curtisville | | Change Station
CLOSE
Current Station
Personal Weather Station
Location: Mannington, WV
Elevation: 1017 ft
Nearby Weather Stations

Elev 1017 ft 39.52 °N, 80.44 °W | Updated 11 minutes ago

Mostly Cloudy
Mostly Cloudy
54.7 °F
Feels Like 54.7 °F
N
9.4
Wind Variable Wind from SE

Today
High -- | Low -- °F
--% Chance of Precip.
Yesterday
High -- | Low -- °F
Precip. -- in
7:09 AM 7:43 PM
Waxing Gibbous, 81% visible
Pressure 29.96 in
Visibility 10.0 miles
Clouds Scattered Clouds 5000 ft
Mostly Cloudy 6000 ft
Dew Point 30 °F
Humidity 38%
Rainfall 0.02 in
Snow Depth Not available.
UV 5 out of 12
Pollen 7.40 out of 12
Air Quality Not available.
Flu Activity Not available.
METAR KCKB 301653Z 29015G25KT 10SM SCT050 BKN060 11/M02 A2997 RMK AO2 SLP145 T01111017

More Conditions Fewer Conditions

Pressure 29.96 in
Visibility 10.0 miles
Clouds Scattered Clouds 5000 ft
Mostly Cloudy 6000 ft
Dew Point 30 °F
Humidity 38%
Rainfall 0.02 in
Snow Depth Not available.
UV 5 out of 12
Pollen 7.40 out of 12
Air Quality Not available.
Flu Activity Not available.
METAR KCKB 301653Z 29015G25KT 10SM SCT050 BKN060 11/M02 A2997 RMK AO2 SLP145 T01111017

More Conditions Fewer Conditions

10-Day Weather Forecast

Almanac

Astronomy

Mar. 30, 2015 Rise Set
Actual Time
Civil Twilight
Nautical Twilight
Astronomical Twilight
Moon
Length of Visible Light
Length of Day
Tomorrow will be .
, % of the Moon is Illuminated

Today's Extremes

State Highs State Lows

Community

WunderPhotos

Upload Photos

1,809,545 photos uploaded!

WunderBlogs® & News

Nearby

Air Quality

  Air Quality AQ Index Pollutant
Not available.

Snow Depth

Station Depth Elevation

Earthquake Activity

City Distance Mag. Time & Date
Minimum magnitude displayed is 2.5.

Coastal Water Temperatures

Place Temperature

Stations

Nearby Weather Stations

Station Location Temp. Windchill Dew Point Humidity Wind Precip. Elev Updated Type